Argusville, North Dakota
Current Conditions -  °F | °C
As of 1:07 AM on Saturday 29 Nov 2014 (Local Time) from KFAR Reporting Station
Overcast Overcast  
Wind Chill: -14°   Ceiling: 900
Heat Index: -6°   Visibility: 7mi
Dew Point: -9°   Wind: 18mph
Humidity: 81%   Direction: 160°SSE
Pressure: 29.53"   Gusts: NA
Location:  47.05°N, 96.93°W
Report Text: KFAR 290707Z AUTO 16016KT 7SM OVC009 M06/M09 A2953 RMK AO2 T10611089 TSNO
Loading
Personal Weather Stations






























Interactive Weather Map New forecast layout! Learn more

10-Day Weather Forecast

Advertisements
Track Severe Weather on mobile